Time;durP1;ratioP1;P1;durP2;ratioP2;P2;SDS_P1;SDS_P2;PMS_P1;PMS_P2;Temp;Humidity;BMP_temperature;BMP_pressure;BME280_temperature;BME280_humidity;BME280_pressure;Samples;Min_cycle;Max_cycle;Signal;HPM_P1;HPM_P2
2021/12/24 00:00:34;;;;;;;13.55;9.70;;;;;;;8.57;46.05;102207.66;144994;567;5004;-90
2021/12/24 00:03:01;;;;;;;13.65;9.52;;;;;;;8.58;46.31;102219.81;144994;591;5004;-90
2021/12/24 00:05:32;;;;;;;14.95;10.02;;;;;;;8.58;46.09;102208.59;144994;612;5004;-88
2021/12/24 00:08:00;;;;;;;11.73;9.13;;;;;;;8.41;46.46;102213.53;144994;581;5004;-89
2021/12/24 00:10:30;;;;;;;13.93;10.15;;;;;;;8.48;46.14;102212.31;144994;659;5004;-88
2021/12/24 00:13:01;;;;;;;14.07;10.40;;;;;;;8.42;46.71;102198.94;144994;587;5004;-89
2021/12/24 00:18:39;;;;;;;15.65;10.80;;;;;;;8.36;46.48;102209.78;144994;563;5002;-89
2021/12/24 00:35:15;;;;;;;17.45;12.32;;;;;;;8.32;47.00;102180.25;144994;658;5018;-88
2021/12/24 00:37:45;;;;;;;16.33;11.73;;;;;;;8.32;46.72;102175.06;144994;613;5004;-89
2021/12/24 00:40:18;;;;;;;16.12;12.05;;;;;;;8.32;46.84;102175.06;144994;603;5004;-88
2021/12/24 00:42:51;;;;;;;16.33;12.52;;;;;;;8.36;46.97;102173.56;144994;651;5004;-90
2021/12/24 00:45:30;;;;;;;17.20;11.73;;;;;;;8.42;46.84;102178.25;144994;604;5004;-89
2021/12/24 00:47:59;;;;;;;16.67;12.40;;;;;;;8.43;46.62;102174.81;144994;591;5004;-90
2021/12/24 00:50:30;;;;;;;19.00;13.25;;;;;;;8.44;47.06;102158.53;144994;629;5004;-89
2021/12/24 00:55:02;;;;;;;20.42;13.23;;;;;;;8.47;46.38;102162.22;144994;570;5004;-89
2021/12/24 00:55:49;;;;;;;20.70;14.00;;;;;;;8.49;46.59;102162.31;144994;656;5002;-88
2021/12/24 00:58:16;;;;;;;20.67;14.10;;;;;;;8.50;46.81;102164.09;144994;582;5002;-90
2021/12/24 01:00:43;;;;;;;19.70;14.20;;;;;;;8.51;46.59;102161.59;144994;716;5002;-89
2021/12/24 01:03:11;;;;;;;18.15;13.60;;;;;;;8.53;46.26;102165.19;144994;609;5002;-90
2021/12/24 01:05:39;;;;;;;19.20;14.43;;;;;;;8.50;46.42;102164.97;144994;627;5002;-89
2021/12/24 01:08:07;;;;;;;16.40;12.60;;;;;;;8.51;46.58;102152.94;144994;633;5002;-90
2021/12/24 01:10:38;;;;;;;18.23;13.70;;;;;;;8.49;46.35;102160.59;144994;574;5002;-90
2021/12/24 01:13:07;;;;;;;20.25;14.65;;;;;;;8.50;46.56;102156.34;144994;657;5002;-88
2021/12/24 01:15:57;;;;;;;20.05;14.05;;;;;;;8.49;46.26;102160.59;144994;564;5002;-89
2021/12/24 01:18:38;;;;;;;19.00;13.25;;;;;;;8.46;46.42;102167.28;144994;587;5002;-89
2021/12/24 01:24:05;;;;;;;16.70;12.68;;;;;;;8.44;46.40;102151.66;144994;576;5004;-90
2021/12/24 01:26:42;;;;;;;16.50;12.23;;;;;;;8.44;46.59;102143.03;144994;576;5004;-89
2021/12/24 01:43:28;;;;;;;16.17;11.85;;;;;;;8.25;46.68;102125.44;144994;605;5002;-88
2021/12/24 01:45:57;;;;;;;14.50;10.45;;;;;;;8.00;47.35;102123.88;144994;569;5002;-90
2021/12/24 01:48:24;;;;;;;12.68;10.40;;;;;;;8.06;46.93;102120.81;144994;594;5002;-89
2021/12/24 01:50:52;;;;;;;16.55;11.12;;;;;;;7.95;47.48;102122.72;144994;696;5002;-89
2021/12/24 01:53:21;;;;;;;13.88;11.02;;;;;;;8.03;46.96;102124.09;144994;603;5002;-91
2021/12/24 01:55:50;;;;;;;13.62;10.63;;;;;;;8.07;47.24;102125.19;144994;634;5002;-89
2021/12/24 01:58:24;;;;;;;17.27;11.82;;;;;;;8.09;47.29;102127.06;144994;580;5002;-90
2021/12/24 02:00:55;;;;;;;13.98;10.88;;;;;;;8.10;46.88;102121.09;144994;566;5002;-89
2021/12/24 02:03:22;;;;;;;14.65;11.40;;;;;;;8.10;46.96;102112.47;144994;581;5002;-91
2021/12/24 02:05:49;;;;;;;16.23;11.05;;;;;;;8.12;47.04;102109.16;144994;587;5002;-90
2021/12/24 02:08:17;;;;;;;13.98;11.10;;;;;;;8.15;46.83;102111.03;144994;586;5002;-89
2021/12/24 02:10:45;;;;;;;15.00;11.23;;;;;;;8.21;46.66;102100.16;144994;634;5002;-89
2021/12/24 02:13:15;;;;;;;14.15;10.07;;;;;;;8.24;46.61;102097.75;144994;608;5002;-85
2021/12/24 02:16:06;;;;;;;11.88;9.25;;;;;;;8.23;46.61;102093.41;144994;573;5002;-88
2021/12/24 02:29:57;;;;;;;12.57;9.43;;;;;;;8.05;47.03;102080.22;144994;614;4586;-87
2021/12/24 02:32:25;;;;;;;13.02;9.98;;;;;;;8.03;46.67;102072.38;144994;599;4569;-89
2021/12/24 02:35:01;;;;;;;13.20;10.30;;;;;;;8.05;46.62;102069.88;144994;563;4572;-90
2021/12/24 02:37:27;;;;;;;13.35;9.93;;;;;;;8.03;46.59;102074.06;144993;569;6002;-88
2021/12/24 02:39:55;;;;;;;15.00;10.55;;;;;;;8.02;46.96;102072.28;144992;572;6002;-92
2021/12/24 02:42:23;;;;;;;13.98;10.30;;;;;;;8.06;47.07;102071.66;144992;578;6002;-89
2021/12/24 02:44:51;;;;;;;13.88;10.85;;;;;;;8.05;47.01;102073.38;144992;583;6002;-90
2021/12/24 02:55:27;;;;;;;12.35;9.80;;;;;;;8.17;46.69;102058.59;144992;613;6004;-89
2021/12/24 02:57:53;;;;;;;11.85;9.02;;;;;;;8.19;46.23;102063.84;144992;583;6004;-90
2021/12/24 03:00:25;;;;;;;12.43;9.10;;;;;;;8.19;46.76;102056.09;144992;619;6004;-86
2021/12/24 03:02:53;;;;;;;11.82;9.00;;;;;;;8.16;46.48;102061.06;144992;628;6004;-90
2021/12/24 03:05:22;;;;;;;12.90;9.50;;;;;;;8.16;46.75;102063.66;144992;601;6004;-90
2021/12/24 03:07:52;;;;;;;14.02;9.25;;;;;;;8.15;46.55;102061.91;144992;593;6004;-89
2021/12/24 03:10:20;;;;;;;14.10;9.80;;;;;;;8.10;46.60;102052.97;144992;571;6004;-87
2021/12/24 03:12:51;;;;;;;12.93;9.45;;;;;;;8.10;46.45;102052.97;144992;562;6005;-89
2021/12/24 03:15:19;;;;;;;13.32;10.05;;;;;;;8.06;46.46;102045.81;144992;649;6004;-87
2021/12/24 03:17:51;;;;;;;13.70;10.27;;;;;;;7.94;46.63;102043.37;144992;571;6004;-88
2021/12/24 03:20:19;;;;;;;11.07;9.30;;;;;;;7.79;47.22;102062.31;144992;606;6005;-92
2021/12/24 03:25:36;;;;;;;13.98;9.23;;;;;;;7.68;47.46;102054.66;144992;626;6002;-89
2021/12/24 03:28:04;;;;;;;14.85;9.60;;;;;;;7.73;47.48;102058.44;144992;592;6003;-88
2021/12/24 03:30:30;;;;;;;12.02;9.57;;;;;;;7.60;47.45;102062.84;144992;597;6002;-90
2021/12/24 03:32:57;;;;;;;12.77;8.95;;;;;;;7.70;47.17;102063.41;144992;563;6002;-89
2021/12/24 03:35:24;;;;;;;13.15;9.65;;;;;;;7.74;47.12;102063.69;144992;564;6002;-89
2021/12/24 03:37:50;;;;;;;13.13;9.75;;;;;;;7.71;47.09;102066.09;144992;574;6002;-91
2021/12/24 03:40:18;;;;;;;12.25;9.20;;;;;;;7.73;47.30;102074.84;144992;592;6002;-89
2021/12/24 03:42:45;;;;;;;12.55;9.68;;;;;;;7.70;47.11;102071.16;144992;585;6002;-90
2021/12/24 03:45:37;;;;;;;13.18;10.27;;;;;;;7.76;47.06;102077.63;144992;601;6002;-85
2021/12/24 03:48:14;;;;;;;16.17;10.77;;;;;;;7.76;47.35;102067.28;144992;580;6002;-90
2021/12/24 03:50:51;;;;;;;13.70;10.80;;;;;;;7.82;47.47;102065.06;144992;582;6002;-88
2021/12/24 03:56:02;;;;;;;14.20;10.30;;;;;;;7.71;47.34;102055.75;144992;624;6004;-90
2021/12/24 03:58:28;;;;;;;15.05;10.52;;;;;;;7.73;47.36;102056.75;144992;596;6004;-89
2021/12/24 04:00:58;;;;;;;16.87;10.40;;;;;;;7.77;47.20;102047.50;144992;580;6004;-89
2021/12/24 04:03:24;;;;;;;12.48;9.93;;;;;;;7.73;47.27;102050.66;144992;622;6004;-89
2021/12/24 04:05:50;;;;;;;14.23;10.55;;;;;;;7.74;47.08;102055.06;144992;617;6004;-88
2021/12/24 04:08:17;;;;;;;11.48;9.15;;;;;;;7.42;47.63;102052.22;144992;576;6004;-89
2021/12/24 04:10:44;;;;;;;13.52;9.82;;;;;;;7.58;47.46;102050.63;144992;571;6004;-90
2021/12/24 04:13:13;;;;;;;11.82;9.30;;;;;;;7.68;47.41;102054.66;144992;590;6004;-89
2021/12/24 04:15:40;;;;;;;18.08;9.60;;;;;;;7.65;47.24;102055.34;144992;583;6004;-89
2021/12/24 04:18:15;;;;;;;15.15;9.88;;;;;;;7.49;48.11;102055.19;144992;589;6004;-91
2021/12/24 04:26:11;;;;;;;12.30;9.43;;;;;;;7.61;47.55;102056.84;144992;655;6004;-87
2021/12/24 04:28:38;;;;;;;13.18;10.00;;;;;;;7.58;47.29;102064.41;144992;578;6004;-90
2021/12/24 04:31:05;;;;;;;14.82;10.13;;;;;;;7.57;47.78;102057.47;144992;655;6004;-86
2021/12/24 04:33:36;;;;;;;13.88;10.48;;;;;;;7.56;47.62;102066.03;144992;563;6004;-89
2021/12/24 04:36:33;;;;;;;15.85;10.65;;;;;;;7.63;47.33;102064.72;144991;594;6000;-88
2021/12/24 05:01:10;;;;;;;12.05;8.95;;;;;;;7.58;47.59;102053.19;144992;577;6004;-81
2021/12/24 05:02:26;;;;;;;15.48;11.60;;;;;;;7.88;47.26;102055.91;144992;588;6002;-88
2021/12/24 05:05:21;;;;;;;18.12;12.10;;;;;;;7.88;47.10;102058.50;144992;628;6002;-84
2021/12/24 05:10:51;;;;;;;15.80;12.05;;;;;;;7.87;47.31;102059.28;144992;651;6004;-83
2021/12/24 05:13:39;;;;;;;14.93;11.20;;;;;;;7.73;47.74;102056.75;144992;647;6004;-81
2021/12/24 05:16:23;;;;;;;14.63;11.60;;;;;;;7.76;47.80;102056.94;144992;627;6004;-88
2021/12/24 05:22:09;;;;;;;;;;;;;;;;;;;;;
2021/12/24 05:27:23;;;;;;;16.67;12.15;;;;;;;7.90;47.31;102062.97;144992;607;6002;-87
2021/12/24 05:30:17;;;;;;;16.52;12.35;;;;;;;7.98;47.31;102055.69;144992;591;6002;-86
2021/12/24 05:33:01;;;;;;;16.77;12.55;;;;;;;7.98;47.20;102053.97;144992;592;6002;-89
2021/12/24 05:35:39;;;;;;;19.15;12.05;;;;;;;7.98;47.04;102047.91;144992;575;6002;-84
2021/12/24 05:38:33;;;;;;;20.10;13.13;;;;;;;8.02;47.27;102049.91;144992;575;6002;-83
2021/12/24 05:41:08;;;;;;;18.62;12.45;;;;;;;7.98;47.54;102053.09;144992;593;6005;-90
2021/12/24 05:43:38;;;;;;;17.58;12.43;;;;;;;7.99;47.28;102045.44;144992;572;6004;-88
2021/12/24 05:46:04;;;;;;;18.33;11.90;;;;;;;7.99;47.07;102045.44;144992;571;6004;-88
2021/12/24 05:48:34;;;;;;;16.55;12.30;;;;;;;7.96;47.23;102044.34;144991;611;6000;-87
2021/12/24 05:51:09;;;;;;;17.70;12.15;;;;;;;7.78;47.80;102044.13;144992;579;6002;-88
2021/12/24 05:54:12;;;;;;;16.95;11.45;;;;;;;7.85;47.53;102037.63;144992;565;6002;-88
2021/12/24 05:59:13;;;;;;;16.52;10.98;;;;;;;7.73;47.86;102046.41;144992;588;6002;-82
2021/12/24 06:01:51;;;;;;;17.60;12.15;;;;;;;7.84;47.80;102038.41;144992;571;6002;-84
2021/12/24 06:09:32;;;;;;;16.33;11.63;;;;;;;7.76;47.75;102048.28;144992;609;6002;-87
2021/12/24 06:12:12;;;;;;;19.95;12.40;;;;;;;7.94;47.88;102043.37;144992;618;6002;-88
2021/12/24 06:14:52;;;;;;;16.40;12.80;;;;;;;8.56;46.85;102039.31;144992;592;6002;-84
2021/12/24 06:17:40;;;;;;;18.23;12.27;;;;;;;9.11;45.95;102037.34;144992;579;6002;-89
2021/12/24 06:20:36;;;;;;;18.45;12.37;;;;;;;9.71;45.20;102042.38;144992;632;6002;-81
2021/12/24 06:23:28;;;;;;;15.98;11.68;;;;;;;10.45;44.39;102043.69;144992;566;6002;-86
2021/12/24 06:26:16;;;;;;;16.58;11.77;;;;;;;11.04;43.56;102042.34;144992;589;6002;-89
2021/12/24 06:29:07;;;;;;;15.43;11.90;;;;;;;11.54;42.74;102045.56;144992;496;6002;-89
2021/12/24 06:31:46;;;;;;;17.00;12.52;;;;;;;12.02;42.20;102055.59;144992;611;6002;-87
2021/12/24 06:34:14;;;;;;;17.83;11.90;;;;;;;12.40;41.37;102059.91;144992;596;6002;-87
2021/12/24 06:37:03;;;;;;;19.00;12.48;;;;;;;12.72;40.88;102060.37;144992;602;6002;-82
2021/12/24 06:39:46;;;;;;;18.58;12.60;;;;;;;12.87;40.53;102054.94;144992;462;6002;-89
2021/12/24 06:42:32;;;;;;;18.77;12.73;;;;;;;12.92;40.46;102050.81;144992;575;6002;-87
2021/12/24 06:48:02;;;;;;;18.10;13.20;;;;;;;13.28;39.92;102058.34;144992;586;6002;-87
2021/12/24 06:50:37;;;;;;;20.62;14.07;;;;;;;13.55;39.17;102055.97;144992;569;6002;-89
2021/12/24 06:53:07;;;;;;;16.02;13.30;;;;;;;13.75;39.21;102048.91;144992;678;6002;-89
2021/12/24 06:55:36;;;;;;;16.62;12.93;;;;;;;13.96;38.60;102059.25;144992;655;6002;-89
2021/12/24 06:58:03;;;;;;;16.17;13.43;;;;;;;13.95;38.11;102049.66;144992;579;6002;-89
2021/12/24 07:00:30;;;;;;;21.50;13.98;;;;;;;13.91;37.92;102046.87;144992;569;6002;-88
2021/12/24 07:02:57;;;;;;;22.33;15.70;;;;;;;13.91;38.27;102047.75;144992;564;6002;-88
2021/12/24 07:05:24;;;;;;;20.67;16.92;;;;;;;13.97;38.06;102055.81;144992;613;6002;-88
2021/12/24 07:07:51;;;;;;;20.35;17.20;;;;;;;14.00;37.60;102047.22;144992;581;6002;-88
2021/12/24 07:10:18;;;;;;;23.90;17.30;;;;;;;14.06;37.70;102043.94;144992;574;6002;-88
2021/12/24 07:12:45;;;;;;;23.70;16.87;;;;;;;14.13;37.81;102043.34;144992;594;6002;-88
2021/12/24 07:15:12;;;;;;;25.55;17.60;;;;;;;14.19;37.52;102043.56;144992;624;6002;-90
2021/12/24 07:17:38;;;;;;;29.42;16.98;;;;;;;14.27;37.63;102039.50;144992;604;6002;-87
2021/12/24 07:20:06;;;;;;;19.35;14.95;;;;;;;14.40;37.49;102035.59;144992;578;6002;-91
2021/12/24 07:22:33;;;;;;;21.70;15.05;;;;;;;14.48;37.30;102036.75;144992;616;6002;-90
2021/12/24 07:24:59;;;;;;;20.35;15.38;;;;;;;14.68;37.14;102033.94;144992;638;6002;-89
2021/12/24 07:27:29;;;;;;;21.80;15.55;;;;;;;14.82;37.00;102030.06;144992;634;6002;-89
2021/12/24 07:30:04;;;;;;;22.92;15.43;;;;;;;15.02;36.76;102029.84;144992;566;6002;-89
2021/12/24 07:32:31;;;;;;;22.65;15.63;;;;;;;15.13;35.98;102025.84;144992;615;6002;-90
2021/12/24 07:34:58;;;;;;;20.02;14.80;;;;;;;15.17;35.85;102026.84;144992;566;6002;-91
2021/12/24 07:37:25;;;;;;;21.00;14.52;;;;;;;15.24;36.16;102036.66;144992;601;6002;-89
2021/12/24 07:39:51;;;;;;;19.42;13.80;;;;;;;15.31;35.66;102030.78;144992;565;6002;-89
2021/12/24 07:42:18;;;;;;;17.37;13.60;;;;;;;15.36;35.92;102023.94;144992;577;6002;-91
2021/12/24 07:44:45;;;;;;;16.67;13.27;;;;;;;15.50;35.58;102028.72;144992;583;6002;-94
2021/12/24 07:47:18;;;;;;;19.35;12.15;;;;;;;15.57;35.79;102034.19;144992;572;6002;-92
2021/12/24 07:49:47;;;;;;;14.65;11.55;;;;;;;15.23;35.64;102029.66;144992;595;6002;-89
2021/12/24 07:52:15;;;;;;;16.67;11.90;;;;;;;15.32;35.01;102040.41;144991;604;6002;-89
2021/12/24 07:54:50;;;;;;;13.27;11.15;;;;;;;15.41;35.12;102027.63;144992;647;6002;-88
2021/12/24 07:57:17;;;;;;;14.70;10.68;;;;;;;15.48;34.79;102028.69;144992;573;6002;-88
2021/12/24 07:59:44;;;;;;;14.48;11.40;;;;;;;15.61;34.63;102027.31;144992;603;6002;-90
2021/12/24 08:02:15;;;;;;;16.23;11.50;;;;;;;15.70;34.65;102024.06;144992;564;6002;-90
2021/12/24 08:04:42;;;;;;;12.98;11.20;;;;;;;15.80;34.57;102028.78;144992;619;6011;-89
2021/12/24 08:07:09;;;;;;;15.25;11.07;;;;;;;15.85;34.65;102021.94;144992;617;6002;-89
2021/12/24 08:09:37;;;;;;;14.25;11.07;;;;;;;15.90;35.01;102025.56;144992;596;6002;-91
2021/12/24 08:12:09;;;;;;;13.10;10.88;;;;;;;15.90;34.68;102015.09;144992;569;6002;-89
2021/12/24 08:14:35;;;;;;;15.48;11.23;;;;;;;15.90;34.68;102019.47;144992;582;6002;-92
2021/12/24 08:17:03;;;;;;;13.77;11.40;;;;;;;15.88;34.89;102008.94;144992;793;6002;-88
2021/12/24 08:19:30;;;;;;;15.13;12.10;;;;;;;15.87;34.73;102011.50;144992;597;6002;-89
2021/12/24 08:21:57;;;;;;;17.35;12.43;;;;;;;15.80;34.48;102007.84;144992;606;6002;-90
2021/12/24 08:24:24;;;;;;;17.17;12.65;;;;;;;15.70;35.23;102003.13;144992;634;6002;-90
2021/12/24 08:26:52;;;;;;;14.27;12.40;;;;;;;15.71;35.20;101997.94;144992;610;6002;-89
2021/12/24 08:29:21;;;;;;;15.20;12.70;;;;;;;15.76;34.91;101996.41;144992;569;6002;-90
2021/12/24 08:31:51;;;;;;;14.07;12.05;;;;;;;15.79;34.47;102000.81;144992;637;6002;-89
2021/12/24 08:34:19;;;;;;;17.52;13.95;;;;;;;15.86;34.95;101994.94;144992;572;6002;-89
2021/12/24 08:36:51;;;;;;;16.62;13.10;;;;;;;15.95;34.42;101992.56;144992;615;6002;-90
2021/12/24 08:39:19;;;;;;;16.62;13.30;;;;;;;16.10;34.79;101979.00;144992;589;6002;-87
2021/12/24 08:41:52;;;;;;;17.62;13.52;;;;;;;16.29;34.74;101977.75;144992;613;6002;-88
2021/12/24 08:44:19;;;;;;;19.23;13.68;;;;;;;16.43;33.91;101979.84;144992;594;6002;-91
2021/12/24 08:46:48;;;;;;;16.65;13.52;;;;;;;16.54;34.27;101981.00;144992;571;6002;-89
2021/12/24 08:49:15;;;;;;;18.00;12.05;;;;;;;16.68;33.58;101970.84;144991;663;6002;-87
2021/12/24 08:51:42;;;;;;;18.35;12.55;;;;;;;16.66;32.49;101967.31;144992;566;6002;-90
2021/12/24 08:54:08;;;;;;;16.83;11.70;;;;;;;16.44;33.91;101966.78;144993;638;6002;-92
2021/12/24 08:56:35;;;;;;;16.37;11.65;;;;;;;16.59;33.79;101965.37;144992;576;6002;-89
2021/12/24 08:59:03;;;;;;;16.73;11.77;;;;;;;16.69;33.55;101963.03;144993;622;6002;-88
2021/12/24 09:01:29;;;;;;;16.45;12.30;;;;;;;16.82;33.88;101956.34;144993;589;6002;-90
2021/12/24 09:03:55;;;;;;;16.12;11.63;;;;;;;16.97;33.89;101955.87;144993;585;6002;-88
2021/12/24 09:06:24;;;;;;;14.60;13.07;;;;;;;17.07;32.91;101946.47;144993;585;6002;-88
2021/12/24 09:08:51;;;;;;;19.30;13.70;;;;;;;17.14;32.93;101942.25;144993;590;6002;-88
2021/12/24 09:11:20;;;;;;;18.48;14.27;;;;;;;17.16;32.84;101949.28;144993;585;6002;-88
2021/12/24 09:13:47;;;;;;;18.67;13.80;;;;;;;17.19;32.97;101949.34;144993;565;6002;-90
2021/12/24 09:16:13;;;;;;;16.70;14.73;;;;;;;17.23;33.61;101950.31;144993;587;6002;-90
2021/12/24 09:18:41;;;;;;;16.55;13.60;;;;;;;17.29;33.52;101933.81;144993;578;6002;-90
2021/12/24 09:21:15;;;;;;;15.50;12.15;;;;;;;17.34;33.50;101924.28;144993;589;6002;-90
2021/12/24 09:23:46;;;;;;;17.45;12.50;;;;;;;17.36;32.28;101917.34;144992;569;6002;-89
2021/12/24 09:26:13;;;;;;;15.10;11.12;;;;;;;17.29;33.27;101913.72;144992;656;6002;-89
2021/12/24 09:28:39;;;;;;;11.95;10.00;;;;;;;17.33;32.56;101912.91;144992;612;6002;-89
2021/12/24 09:31:06;;;;;;;13.20;10.32;;;;;;;17.36;32.94;101905.09;144992;610;6002;-88
2021/12/24 09:33:33;;;;;;;16.10;9.80;;;;;;;17.39;32.84;101901.66;144992;569;6002;-89
2021/12/24 09:36:00;;;;;;;14.20;10.23;;;;;;;17.44;32.24;101894.75;144992;670;6002;-87
2021/12/24 09:38:26;;;;;;;15.57;10.35;;;;;;;17.48;32.84;101893.97;144993;721;6002;-88
2021/12/24 09:40:53;;;;;;;13.25;10.63;;;;;;;17.50;32.86;101888.72;144993;573;6002;-89
2021/12/24 09:43:20;;;;;;;13.48;11.20;;;;;;;17.54;32.81;101883.56;144993;618;6002;-88
2021/12/24 09:45:46;;;;;;;13.40;10.10;;;;;;;17.58;32.13;101872.28;144993;573;6002;-88
2021/12/24 09:48:13;;;;;;;13.32;9.57;;;;;;;17.63;32.32;101872.38;144993;564;6002;-87
2021/12/24 09:50:39;;;;;;;13.38;10.02;;;;;;;17.65;31.91;101873.28;144993;589;6002;-89
2021/12/24 09:53:06;;;;;;;11.48;8.85;;;;;;;17.67;32.02;101860.19;144993;631;6002;-89
2021/12/24 09:55:33;;;;;;;10.75;9.00;;;;;;;17.62;32.54;101854.84;144993;636;6002;-90
2021/12/24 09:58:00;;;;;;;11.23;9.00;;;;;;;17.62;32.32;101849.59;144993;579;6002;-87
2021/12/24 10:00:28;;;;;;;11.45;9.40;;;;;;;17.65;31.96;101841.78;144992;624;6002;-88
2021/12/24 10:02:57;;;;;;;11.12;8.48;;;;;;;17.66;32.38;101830.44;144993;607;6002;-90
2021/12/24 10:05:38;;;;;;;15.90;9.80;;;;;;;17.67;32.13;101831.31;144993;574;6002;-88
2021/12/24 10:08:08;;;;;;;13.38;10.00;;;;;;;17.70;31.53;101820.84;144993;589;6002;-88
2021/12/24 10:10:40;;;;;;;11.77;10.32;;;;;;;17.70;31.75;101816.47;144993;578;6002;-89
2021/12/24 10:13:33;;;;;;;14.20;11.52;;;;;;;17.70;31.83;101811.22;144993;640;6002;-89
2021/12/24 10:16:03;;;;;;;14.55;10.48;;;;;;;17.61;31.41;101805.84;144993;600;6002;-89
2021/12/24 10:18:35;;;;;;;16.02;10.32;;;;;;;17.60;31.52;101804.06;144993;564;6002;-93
2021/12/24 10:21:05;;;;;;;14.80;11.88;;;;;;;17.54;31.90;101802.19;144993;606;6002;-90
2021/12/24 10:23:49;;;;;;;17.12;11.70;;;;;;;17.53;32.23;101791.66;144993;593;6002;-88
2021/12/24 10:26:31;;;;;;;15.02;11.65;;;;;;;17.57;32.07;101798.75;144993;633;6002;-89
2021/12/24 10:29:09;;;;;;;11.00;7.40;;;;;;;15.80;30.48;101780.06;144993;569;6002;-86
2021/12/24 10:31:56;;;;;;;11.32;7.90;;;;;;;16.62;32.29;101787.19;144993;594;6002;-89
2021/12/24 10:34:34;;;;;;;8.38;6.62;;;;;;;16.10;30.64;101777.31;144994;599;5004;-89
2021/12/24 10:37:04;;;;;;;7.78;6.35;;;;;;;16.24;32.57;101775.03;144994;581;5004;-88
2021/12/24 10:39:36;;;;;;;9.70;7.43;;;;;;;16.36;32.51;101769.16;144994;612;5004;-89
2021/12/24 10:42:09;;;;;;;7.60;6.78;;;;;;;16.52;32.98;101767.78;144994;621;5004;-88
2021/12/24 10:44:38;;;;;;;8.63;6.18;;;;;;;16.69;32.92;101760.28;144994;620;5004;-89
2021/12/24 10:47:17;;;;;;;7.50;6.70;;;;;;;16.81;32.78;101760.53;144994;585;5004;-89
2021/12/24 10:50:00;;;;;;;7.82;6.35;;;;;;;16.87;32.30;101751.94;144993;578;5004;-90
2021/12/24 10:52:42;;;;;;;7.40;6.68;;;;;;;16.98;32.44;101742.53;144994;609;5002;-89
2021/12/24 10:55:12;;;;;;;7.85;6.68;;;;;;;17.09;32.51;101744.50;144994;579;5002;-91
2021/12/24 10:57:41;;;;;;;8.60;7.70;;;;;;;16.54;33.28;101746.84;144994;580;5002;-87
2021/12/24 11:00:33;;;;;;;11.70;7.55;;;;;;;16.72;33.17;101735.84;144994;629;5002;-87
2021/12/24 11:03:17;;;;;;;10.45;6.78;;;;;;;16.81;32.48;101728.16;144994;571;5004;-85
2021/12/24 11:06:03;;;;;;;7.45;6.28;;;;;;;16.67;33.18;101722.63;144994;581;5004;-87
2021/12/24 11:08:30;;;;;;;7.80;6.60;;;;;;;16.32;31.27;101713.19;144994;572;5005;-87
2021/12/24 11:10:59;;;;;;;8.50;7.30;;;;;;;16.46;32.98;101710.88;144994;576;5004;-88
2021/12/24 11:13:54;;;;;;;8.95;6.87;;;;;;;16.62;33.52;101706.84;144994;611;5004;-87
2021/12/24 11:16:22;;;;;;;8.68;7.20;;;;;;;16.69;33.52;101693.00;144994;569;5003;-89
2021/12/24 11:19:00;;;;;;;11.85;8.27;;;;;;;16.75;33.45;101687.00;144994;623;5002;-88
2021/12/24 11:21:29;;;;;;;7.97;7.18;;;;;;;16.84;33.52;101691.53;144994;592;5002;-89
2021/12/24 11:23:56;;;;;;;9.27;6.07;;;;;;;16.91;33.15;101682.06;144994;623;5003;-90
2021/12/24 11:26:30;;;;;;;6.40;5.60;;;;;;;16.97;33.38;101680.47;144994;607;5002;-88
2021/12/24 11:28:57;;;;;;;6.50;4.80;;;;;;;16.99;33.35;101677.84;144994;572;5002;-89
2021/12/24 11:31:27;;;;;;;6.87;5.22;;;;;;;17.02;32.52;101672.66;144994;587;5002;-89
2021/12/24 11:33:54;;;;;;;7.90;5.45;;;;;;;17.04;32.84;101677.09;144994;628;5002;-88
2021/12/24 11:36:23;;;;;;;7.55;6.15;;;;;;;17.06;32.99;101669.25;144994;634;5002;-89
2021/12/24 11:38:57;;;;;;;7.87;6.10;;;;;;;17.09;33.37;101660.56;144994;614;5002;-88
2021/12/24 11:41:27;;;;;;;6.90;6.20;;;;;;;17.14;33.17;101666.75;144994;570;5002;-89
2021/12/24 11:43:56;;;;;;;10.68;6.70;;;;;;;16.67;34.18;101667.59;144994;572;5002;-90
2021/12/24 11:46:25;;;;;;;8.10;5.28;;;;;;;16.68;33.29;101661.50;144994;570;5002;-88
2021/12/24 11:48:53;;;;;;;7.68;5.93;;;;;;;15.43;35.17;101663.97;144994;614;5002;-90
2021/12/24 11:51:33;;;;;;;7.07;5.30;;;;;;;15.58;34.49;101660.81;144994;586;5002;-91
2021/12/24 11:54:04;;;;;;;5.85;5.03;;;;;;;15.76;34.65;101660.37;144994;576;5002;-89
2021/12/24 11:56:42;;;;;;;6.70;5.62;;;;;;;15.89;34.64;101657.22;144994;618;5002;-88
2021/12/24 11:59:09;;;;;;;8.32;6.03;;;;;;;15.94;34.12;101660.84;144994;569;5002;-87
2021/12/24 12:01:41;;;;;;;7.07;6.12;;;;;;;15.91;34.61;101644.19;144994;580;5002;-89
2021/12/24 12:04:22;;;;;;;8.85;6.03;;;;;;;16.06;34.43;101644.50;144994;570;5002;-87
2021/12/24 12:06:51;;;;;;;6.28;5.57;;;;;;;16.04;34.42;101630.50;144994;584;5002;-90
2021/12/24 12:09:17;;;;;;;7.07;6.15;;;;;;;16.17;34.86;101631.62;144994;584;5002;-87
2021/12/24 12:11:45;;;;;;;7.57;6.53;;;;;;;16.25;34.53;101624.81;144994;566;5002;-89
2021/12/24 12:14:25;;;;;;;8.80;6.90;;;;;;;16.37;34.08;101612.81;144994;590;5002;-89
2021/12/24 12:16:56;;;;;;;10.15;6.37;;;;;;;15.79;34.58;101615.97;144994;577;5002;-90
2021/12/24 12:19:46;;;;;;;7.85;7.05;;;;;;;16.01;35.33;101619.06;144994;639;5002;-89
2021/12/24 12:22:54;;;;;;;8.25;6.10;;;;;;;16.13;34.67;101611.50;144994;564;5002;-89
2021/12/24 12:25:36;;;;;;;10.68;7.05;;;;;;;16.18;34.76;101603.69;144994;569;5004;-88
2021/12/24 12:28:08;;;;;;;8.82;7.18;;;;;;;16.04;34.83;101595.56;144994;592;5004;-89
2021/12/24 12:30:39;;;;;;;12.32;7.65;;;;;;;15.79;35.53;101592.41;144994;566;5005;-88
2021/12/24 12:33:11;;;;;;;10.15;7.55;;;;;;;15.68;35.15;101594.75;144994;621;5004;-89
2021/12/24 12:35:42;;;;;;;9.65;8.32;;;;;;;15.56;35.11;101597.97;144994;625;5004;-90
2021/12/24 12:38:29;;;;;;;11.18;8.95;;;;;;;15.43;35.65;101598.56;144994;636;5004;-88
2021/12/24 12:41:33;;;;;;;10.48;8.00;;;;;;;15.34;35.60;101593.09;144994;590;5004;-89
2021/12/24 12:44:14;;;;;;;9.43;7.78;;;;;;;15.11;36.19;101598.66;144994;741;5002;-87
2021/12/24 12:46:43;;;;;;;9.73;7.68;;;;;;;15.13;36.71;101594.34;144994;587;5002;-90
2021/12/24 12:49:16;;;;;;;10.98;8.55;;;;;;;15.22;36.35;101591.03;144994;586;5002;-88
2021/12/24 12:52:12;;;;;;;10.35;7.72;;;;;;;15.32;36.05;101590.44;144994;628;5002;-89
2021/12/24 12:54:45;;;;;;;10.32;8.18;;;;;;;15.42;36.63;101595.03;144994;620;5002;-89
2021/12/24 12:57:40;;;;;;;10.02;8.07;;;;;;;15.50;36.55;101584.75;144994;589;5002;-88
2021/12/24 13:00:24;;;;;;;9.40;7.85;;;;;;;15.55;36.08;101587.47;144994;600;5004;-87
2021/12/24 13:03:17;;;;;;;12.35;7.78;;;;;;;15.46;35.64;101580.28;144994;625;5004;-89
2021/12/24 13:06:04;;;;;;;9.88;7.60;;;;;;;15.51;36.65;101586.53;144994;581;5002;-88
2021/12/24 13:08:34;;;;;;;8.45;6.75;;;;;;;15.56;36.81;101579.66;144994;719;5004;-89
2021/12/24 13:11:15;;;;;;;14.30;7.05;;;;;;;15.51;36.78;101581.28;144994;569;5004;-88
2021/12/24 13:13:57;;;;;;;6.40;5.80;;;;;;;15.10;37.06;101583.78;144994;622;5004;-88
2021/12/24 13:16:33;;;;;;;9.68;6.82;;;;;;;15.14;37.26;101580.38;144994;717;5004;-87
2021/12/24 13:19:25;;;;;;;8.07;5.87;;;;;;;14.33;39.09;101581.72;144994;566;5004;-89
2021/12/24 13:25:14;;;;;;;6.62;6.00;;;;;;;14.29;38.58;101577.25;144994;598;5002;-88
2021/12/24 13:27:54;;;;;;;7.65;5.15;;;;;;;13.76;40.40;101583.56;144994;785;5002;-89
2021/12/24 13:30:26;;;;;;;6.15;4.82;;;;;;;13.70;40.72;101583.38;144994;567;5003;-91
2021/12/24 13:33:02;;;;;;;5.75;5.10;;;;;;;14.07;39.25;101573.16;144994;595;5002;-89
2021/12/24 13:35:48;;;;;;;5.12;4.45;;;;;;;13.97;39.65;101582.44;144994;690;5002;-88
2021/12/24 13:38:24;;;;;;;4.93;4.37;;;;;;;13.92;40.44;101570.97;144994;574;5002;-88
2021/12/24 13:40:52;;;;;;;6.47;4.70;;;;;;;13.70;40.15;101583.38;144994;621;5002;-89